createdAt,value
2022-12-16T00:01:14.508Z,99431.66
2022-12-16T00:03:48.034Z,99430.78
2022-12-16T00:06:16.862Z,99431.56
2022-12-16T00:08:47.001Z,99447.69
2022-12-16T00:11:16.383Z,99443.47
2022-12-16T00:13:46.137Z,99438.28
2022-12-16T00:16:17.569Z,99443.38
2022-12-16T00:18:46.428Z,99429.66
2022-12-16T00:21:15.464Z,99439.81
2022-12-16T00:23:43.855Z,99437.28
2022-12-16T00:26:14.292Z,99438.91
2022-12-16T00:28:43.854Z,99423.44
2022-12-16T00:31:12.879Z,99426.97
2022-12-16T00:33:41.533Z,99431.16
2022-12-16T00:36:11.108Z,99432.84
2022-12-16T00:38:39.827Z,99437.78
2022-12-16T00:41:09.526Z,99446.31
2022-12-16T00:43:39.901Z,99445.28
2022-12-16T00:46:08.494Z,99452.00
2022-12-16T00:48:36.968Z,99449.47
2022-12-16T00:51:06.417Z,99448.56
2022-12-16T00:53:36.108Z,99444.25
2022-12-16T00:56:06.556Z,99440.81
2022-12-16T00:58:35.466Z,99448.34
2022-12-16T01:01:06.366Z,99448.44
2022-12-16T01:03:35.680Z,99449.22
2022-12-16T01:06:10.195Z,99444.16
2022-12-16T01:08:38.954Z,99448.34
2022-12-16T01:11:07.978Z,99444.91
2022-12-16T01:13:37.047Z,99442.38
2022-12-16T01:16:07.557Z,99447.44
2022-12-16T01:18:37.330Z,99449.84
2022-12-16T01:21:07.898Z,99448.97
2022-12-16T01:23:37.245Z,99452.25
2022-12-16T01:26:06.349Z,99460.66
2022-12-16T01:28:34.962Z,99463.97
2022-12-16T01:31:03.510Z,99466.38
2022-12-16T01:33:35.091Z,99463.69
2022-12-16T01:36:08.192Z,99470.56
2022-12-16T01:38:37.573Z,99473.84
2022-12-16T01:41:07.270Z,99465.34
2022-12-16T01:43:40.171Z,99472.06
2022-12-16T01:46:17.233Z,99465.09
2022-12-16T01:48:52.898Z,99469.28
2022-12-16T01:51:30.044Z,99463.19
2022-12-16T01:54:02.612Z,99476.66
2022-12-16T01:56:34.431Z,99477.44
2022-12-16T01:59:03.778Z,99458.75
2022-12-16T02:01:32.425Z,99468.03
2022-12-16T02:04:05.251Z,99479.06
2022-12-16T02:06:35.100Z,99474.75
2022-12-16T02:09:09.826Z,99477.28
2022-12-16T02:12:19.440Z,99472.84
2022-12-16T02:15:15.713Z,99480.34
2022-12-16T02:17:56.441Z,99480.06
2022-12-16T02:21:09.763Z,99486.78
2022-12-16T02:24:04.400Z,99482.47
2022-12-16T02:27:31.956Z,99480.72
2022-12-16T02:30:35.577Z,99483.88
2022-12-16T02:33:22.229Z,99473.59
2022-12-16T02:35:57.614Z,99482.09
2022-12-16T02:38:34.775Z,99490.59
2022-12-16T02:41:05.852Z,99483.75
2022-12-16T02:43:51.899Z,99483.75
2022-12-16T02:46:26.214Z,99487.94
2022-12-16T02:48:55.227Z,99488.59
2022-12-16T02:51:27.028Z,99490.38
2022-12-16T02:53:57.431Z,99493.78
2022-12-16T02:56:42.613Z,99495.44
2022-12-16T02:59:20.240Z,99495.44
2022-12-16T03:01:56.858Z,99492.16
2022-12-16T03:04:33.359Z,99496.19
2022-12-16T03:07:02.620Z,99497.09
2022-12-16T03:09:35.423Z,99496.94
2022-12-16T03:12:07.663Z,99495.16
2022-12-16T03:14:38.146Z,99491.63
2022-12-16T03:17:10.305Z,99494.16
2022-12-16T03:19:44.198Z,99489.84
2022-12-16T03:22:16.342Z,99495.69
2022-12-16T03:24:44.935Z,99501.66
2022-12-16T03:27:20.020Z,99500.00
2022-12-16T03:29:55.855Z,99495.81
2022-12-16T03:32:34.695Z,99503.28
2022-12-16T03:35:11.294Z,99495.53
2022-12-16T03:37:41.287Z,99503.28
2022-12-16T03:40:13.243Z,99500.63
2022-12-16T03:42:43.354Z,99503.00
2022-12-16T03:45:18.577Z,99501.25
2022-12-16T03:47:53.112Z,99499.47
2022-12-16T03:50:27.111Z,99495.16
2022-12-16T03:52:55.570Z,99505.31
2022-12-16T03:55:23.966Z,99495.03
2022-12-16T03:57:52.669Z,99512.91
2022-12-16T04:00:21.831Z,99509.34
2022-12-16T04:02:52.526Z,99517.84
2022-12-16T04:05:21.152Z,99515.22
2022-12-16T04:07:49.489Z,99511.00
2022-12-16T04:10:38.320Z,99505.81
2022-12-16T04:13:24.496Z,99512.69
2022-12-16T04:16:10.688Z,99514.19
2022-12-16T04:18:59.042Z,99515.69
2022-12-16T04:21:45.430Z,99513.81
2022-12-16T04:24:20.130Z,99520.53
2022-12-16T04:27:18.155Z,99527.25
2022-12-16T04:30:03.724Z,99522.78
2022-12-16T04:32:53.226Z,99537.25
2022-12-16T04:35:40.532Z,99534.56
2022-12-16T04:38:26.581Z,99534.47
2022-12-16T04:41:12.657Z,99534.31
2022-12-16T04:43:58.907Z,99533.44
2022-12-16T04:46:44.977Z,99534.19
2022-12-16T04:49:31.540Z,99545.97
2022-12-16T04:52:19.016Z,99547.38
2022-12-16T04:55:04.923Z,99546.63
2022-12-16T04:57:51.155Z,99550.66
2022-12-16T05:00:37.592Z,99559.78
2022-12-16T05:03:23.497Z,99562.31
2022-12-16T05:06:09.626Z,99564.84
2022-12-16T05:08:56.872Z,99569.81
2022-12-16T05:11:42.862Z,99565.50
2022-12-16T05:14:28.828Z,99562.81
2022-12-16T05:17:14.888Z,99574.75
2022-12-16T05:20:00.972Z,99568.91
2022-12-16T05:22:47.135Z,99576.38
2022-12-16T05:25:34.389Z,99568.03
2022-12-16T05:28:20.545Z,99565.34
2022-12-16T05:31:06.709Z,99573.84
2022-12-16T05:33:52.860Z,99578.78
2022-12-16T05:36:47.254Z,99578.94
2022-12-16T05:39:33.482Z,99585.50
2022-12-16T05:42:20.558Z,99590.56
2022-12-16T05:45:06.555Z,99594.50
2022-12-16T05:47:52.635Z,99607.69
2022-12-16T05:50:38.869Z,99608.28
2022-12-16T05:53:27.840Z,99617.00
2022-12-16T05:56:14.497Z,99613.47
2022-12-16T05:59:02.023Z,99618.25
2022-12-16T06:01:48.402Z,99619.13
2022-12-16T06:04:34.504Z,99635.09
2022-12-16T06:07:19.580Z,99639.41
2022-12-16T06:10:05.494Z,99632.69
2022-12-16T06:12:51.556Z,99632.69
2022-12-16T06:15:39.020Z,99648.94
2022-12-16T06:18:25.156Z,99657.81
2022-12-16T06:21:11.134Z,99659.16
2022-12-16T06:23:56.449Z,99664.84
2022-12-16T06:26:42.405Z,99666.34
2022-12-16T06:29:28.700Z,99674.56
2022-12-16T06:32:16.114Z,99666.97
2022-12-16T06:35:02.165Z,99672.91
2022-12-16T06:38:02.826Z,99675.44
2022-12-16T06:40:48.672Z,99681.31
2022-12-16T06:43:34.978Z,99684.69
2022-12-16T06:46:21.777Z,99684.84
2022-12-16T06:49:09.307Z,99683.06
2022-12-16T06:51:55.327Z,99686.50
2022-12-16T06:54:41.577Z,99689.91
2022-12-16T06:57:27.801Z,99703.47
2022-12-16T07:00:13.989Z,99704.22
2022-12-16T07:03:02.378Z,99705.88
2022-12-16T07:05:49.497Z,99709.28
2022-12-16T07:08:35.601Z,99721.84
2022-12-16T07:11:21.630Z,99716.91
2022-12-16T07:14:07.684Z,99723.63
2022-12-16T07:16:54.013Z,99725.13
2022-12-16T07:19:40.253Z,99726.94
2022-12-16T07:22:27.892Z,99727.53
2022-12-16T07:25:10.421Z,99741.25
2022-12-16T07:27:56.355Z,99744.66
2022-12-16T07:30:42.513Z,99751.38
2022-12-16T07:33:28.528Z,99756.44
2022-12-16T07:36:14.502Z,99761.53
2022-12-16T07:39:02.048Z,99771.50
2022-12-16T07:41:48.173Z,99772.25
2022-12-16T07:44:34.207Z,99782.41
2022-12-16T07:47:20.323Z,99786.41
2022-12-16T07:50:06.310Z,99792.53
2022-12-16T07:52:52.332Z,99790.75
2022-12-16T07:55:43.000Z,99803.41
2022-12-16T07:58:29.127Z,99796.72
2022-12-16T08:01:15.067Z,99799.09
2022-12-16T08:04:01.316Z,99798.34
2022-12-16T08:06:47.277Z,99804.31
2022-12-16T08:09:33.189Z,99810.28
2022-12-16T08:12:20.941Z,99811.19
2022-12-16T08:15:07.058Z,99809.53
2022-12-16T08:17:53.017Z,99814.59
2022-12-16T08:20:41.628Z,99827.44
2022-12-16T08:23:27.663Z,99830.72
2022-12-16T08:26:13.896Z,99833.09
2022-12-16T08:29:20.287Z,99831.59
2022-12-16T08:32:07.643Z,99826.53
2022-12-16T08:34:53.841Z,99828.31
2022-12-16T08:37:40.017Z,99837.69
2022-12-16T08:40:35.175Z,99827.53
2022-12-16T08:43:21.942Z,99836.78
2022-12-16T08:46:13.423Z,99845.28
2022-12-16T08:48:59.844Z,99855.72
2022-12-16T08:51:46.019Z,99844.09
2022-12-16T08:54:32.093Z,99846.75
2022-12-16T08:57:18.329Z,99851.06
2022-12-16T09:00:04.067Z,99854.66
2022-12-16T09:02:51.915Z,99861.34
2022-12-16T09:05:38.908Z,99866.44
2022-12-16T09:08:25.354Z,99868.22
2022-12-16T09:11:12.557Z,99866.69
2022-12-16T09:13:58.538Z,99866.69
2022-12-16T09:16:44.365Z,99872.81
2022-12-16T09:19:32.090Z,99880.69
2022-12-16T09:22:18.304Z,99879.94
2022-12-16T09:25:04.280Z,99875.91
2022-12-16T09:27:50.330Z,99888.84
2022-12-16T09:30:37.086Z,99889.91
2022-12-16T09:33:23.144Z,99885.88
2022-12-16T09:36:10.446Z,99898.81
2022-12-16T09:38:56.358Z,99894.78
2022-12-16T09:42:00.314Z,99899.22
2022-12-16T09:45:19.326Z,99901.00
2022-12-16T09:48:14.186Z,99898.47
2022-12-16T09:51:02.806Z,99908.91
2022-12-16T09:53:55.017Z,99907.53
2022-12-16T09:56:48.501Z,99910.34
2022-12-16T09:59:40.930Z,99905.41
2022-12-16T10:02:30.907Z,99904.06
2022-12-16T10:05:17.871Z,99900.75
2022-12-16T10:08:15.648Z,99908.66
2022-12-16T10:11:14.713Z,99910.56
2022-12-16T10:14:07.670Z,99910.72
2022-12-16T10:17:03.821Z,99916.09
2022-12-16T10:20:03.480Z,99914.72
2022-12-16T10:23:00.418Z,99926.66
2022-12-16T10:25:51.508Z,99926.91
2022-12-16T10:28:57.242Z,99929.84
2022-12-16T10:31:44.749Z,99936.72
2022-12-16T10:34:35.765Z,99928.38
2022-12-16T10:37:21.890Z,99930.16
2022-12-16T10:40:15.452Z,99938.91
2022-12-16T10:43:09.884Z,99944.16
2022-12-16T10:46:05.328Z,99949.47
2022-12-16T10:48:56.450Z,99942.91
2022-12-16T10:51:46.995Z,99939.00
2022-12-16T10:54:59.673Z,99937.63
2022-12-16T10:57:57.458Z,99941.34
2022-12-16T11:00:59.181Z,99936.41
2022-12-16T11:03:48.173Z,99935.91
2022-12-16T11:06:39.666Z,99930.09
2022-12-16T11:10:06.102Z,99933.16
2022-12-16T11:13:03.632Z,99931.38
2022-12-16T11:15:51.085Z,99933.44
2022-12-16T11:18:52.649Z,99932.81
2022-12-16T11:21:40.735Z,99941.47
2022-12-16T11:24:33.405Z,99951.00
2022-12-16T11:27:22.011Z,99942.63
2022-12-16T11:30:14.282Z,99930.97
2022-12-16T11:33:06.130Z,99946.47
2022-12-16T11:36:00.282Z,99945.13
2022-12-16T11:38:56.568Z,99943.72
2022-12-16T11:41:46.960Z,99949.06
2022-12-16T11:44:38.922Z,99947.56
2022-12-16T11:47:37.448Z,99951.16
2022-12-16T11:50:30.366Z,99950.50
2022-12-16T11:53:15.551Z,99948.72
2022-12-16T11:56:14.006Z,99948.34
2022-12-16T11:59:06.650Z,99954.47
2022-12-16T12:01:58.510Z,99955.53
2022-12-16T12:04:44.303Z,99948.78
2022-12-16T12:07:45.865Z,99950.69
2022-12-16T12:11:06.872Z,99957.06
2022-12-16T12:14:22.050Z,99958.09
2022-12-16T12:17:23.306Z,99959.91
2022-12-16T12:20:26.369Z,99966.88
2022-12-16T12:23:16.216Z,99961.19
2022-12-16T12:26:15.150Z,99969.22
2022-12-16T12:29:10.706Z,99961.72
2022-12-16T12:32:06.201Z,99968.59
2022-12-16T12:35:03.193Z,99971.38
2022-12-16T12:37:56.396Z,99967.97
2022-12-16T12:41:00.212Z,99973.44
2022-12-16T12:43:58.784Z,99971.94
2022-12-16T12:46:52.763Z,99963.56
2022-12-16T12:49:48.195Z,99967.00
2022-12-16T12:52:50.457Z,99972.97
2022-12-16T12:56:01.269Z,99969.78
2022-12-16T12:58:51.265Z,99967.53
2022-12-16T13:01:46.253Z,99974.50
2022-12-16T13:04:36.017Z,99967.91
2022-12-16T13:07:22.666Z,99977.19
2022-12-16T13:10:33.592Z,99972.50
2022-12-16T13:13:52.723Z,99984.47
2022-12-16T13:17:23.529Z,99987.00
2022-12-16T13:20:15.889Z,99985.22
2022-12-16T13:23:04.326Z,99988.78
2022-12-16T13:25:55.583Z,99992.38
2022-12-16T13:28:49.758Z,99997.72
2022-12-16T13:31:38.290Z,99980.94
2022-12-16T13:34:39.395Z,100006.63
2022-12-16T13:37:41.449Z,99994.94
2022-12-16T13:40:36.928Z,99994.94
2022-12-16T13:43:23.975Z,100011.09
2022-12-16T13:46:36.405Z,100019.88
2022-12-16T13:49:59.498Z,100020.63
2022-12-16T13:53:00.045Z,100023.94
2022-12-16T13:55:49.684Z,100024.81
2022-12-16T13:58:54.782Z,100029.91
2022-12-16T14:01:52.377Z,100031.44
2022-12-16T14:04:46.585Z,100031.44
2022-12-16T14:07:35.385Z,100036.53
2022-12-16T14:10:21.909Z,100042.38
2022-12-16T14:13:21.764Z,100041.63
2022-12-16T14:16:19.786Z,100053.56
2022-12-16T14:19:26.691Z,100058.78
2022-12-16T14:22:23.649Z,100063.13
2022-12-16T14:25:10.127Z,100062.09
2022-12-16T14:27:56.205Z,100060.56
2022-12-16T14:30:44.465Z,100070.75
2022-12-16T14:33:42.566Z,100072.69
2022-12-16T14:36:44.882Z,100075.34
2022-12-16T14:39:38.983Z,100076.88
2022-12-16T14:42:40.198Z,100070.59
2022-12-16T14:45:41.780Z,100084.38
2022-12-16T14:48:49.321Z,100090.34
2022-12-16T14:51:47.056Z,100098.72
2022-12-16T14:54:41.962Z,100092.75
2022-12-16T14:57:35.553Z,100101.13
2022-12-16T15:00:36.225Z,100100.22
2022-12-16T15:03:30.139Z,100101.03
2022-12-16T15:06:17.193Z,100107.47
2022-12-16T15:09:09.653Z,100107.47
2022-12-16T15:11:56.597Z,100118.28
2022-12-16T15:14:46.226Z,100124.13
2022-12-16T15:17:40.958Z,100132.34
2022-12-16T15:20:38.686Z,100131.47
2022-12-16T15:23:37.715Z,100133.88
2022-12-16T15:26:26.071Z,100142.41
2022-12-16T15:29:12.453Z,100149.75
2022-12-16T15:32:03.375Z,100146.31
2022-12-16T15:34:57.486Z,100147.97
2022-12-16T15:37:48.778Z,100153.03
2022-12-16T15:40:42.797Z,100158.13
2022-12-16T15:43:48.818Z,100155.34
2022-12-16T15:46:50.160Z,100152.50
2022-12-16T15:49:39.889Z,100168.66
2022-12-16T15:52:50.947Z,100176.13
2022-12-16T15:55:49.645Z,100179.47
2022-12-16T15:58:42.192Z,100184.25
2022-12-16T16:01:31.379Z,100180.06
2022-12-16T16:04:20.197Z,100188.59
2022-12-16T16:07:09.254Z,100189.34
2022-12-16T16:09:57.980Z,100191.13
2022-12-16T16:12:44.968Z,100187.53
2022-12-16T16:15:33.473Z,100197.72
2022-12-16T16:18:23.819Z,100205.34
2022-12-16T16:21:10.529Z,100205.34
2022-12-16T16:23:56.612Z,100205.34
2022-12-16T16:26:46.551Z,100210.44
2022-12-16T16:29:33.006Z,100217.16
2022-12-16T16:32:20.217Z,100214.75
2022-12-16T16:35:10.320Z,100224.03
2022-12-16T16:37:56.259Z,100221.97
2022-12-16T16:40:50.216Z,100229.59
2022-12-16T16:43:37.157Z,100233.66
2022-12-16T16:46:42.035Z,100245.59
2022-12-16T16:49:28.808Z,100248.16
2022-12-16T16:52:16.388Z,100245.59
2022-12-16T16:55:02.448Z,100257.41
2022-12-16T16:57:53.239Z,100253.09
2022-12-16T17:00:39.759Z,100256.41
2022-12-16T17:03:26.107Z,100261.50
2022-12-16T17:06:12.159Z,100262.25
2022-12-16T17:08:59.712Z,100269.88
2022-12-16T17:11:46.705Z,100278.25
2022-12-16T17:14:35.136Z,100275.69
2022-12-16T17:17:21.109Z,100285.88
2022-12-16T17:20:07.451Z,100284.81
2022-12-16T17:22:54.241Z,100284.97
2022-12-16T17:25:42.150Z,100287.38
2022-12-16T17:28:30.192Z,100298.28
2022-12-16T17:31:16.138Z,100294.72
2022-12-16T17:34:02.184Z,100304.91
2022-12-16T17:37:02.576Z,100293.81
2022-12-16T17:39:48.530Z,100302.19
2022-12-16T17:42:36.043Z,100310.72
2022-12-16T17:45:22.036Z,100324.19
2022-12-16T17:48:07.944Z,100321.63
2022-12-16T17:50:54.009Z,100327.47
2022-12-16T17:53:40.025Z,100334.19
2022-12-16T17:56:26.457Z,100340.06
2022-12-16T17:59:13.673Z,100339.28
2022-12-16T18:02:00.054Z,100336.63
2022-12-16T18:04:46.324Z,100342.44
2022-12-16T18:07:32.495Z,100350.97
2022-12-16T18:10:18.582Z,100356.06
2022-12-16T18:13:04.695Z,100350.66
2022-12-16T18:15:52.133Z,100356.66
2022-12-16T18:18:42.965Z,100371.91
2022-12-16T18:21:32.833Z,100365.81
2022-12-16T18:24:19.071Z,100368.34
2022-12-16T18:27:05.088Z,100378.50
2022-12-16T18:29:50.946Z,100374.91
2022-12-16T18:32:38.587Z,100386.88
2022-12-16T18:35:24.944Z,100385.09
2022-12-16T18:38:16.120Z,100392.72
2022-12-16T18:41:02.782Z,100387.63
2022-12-16T18:43:48.884Z,100389.28
2022-12-16T18:46:34.966Z,100390.91
2022-12-16T18:49:22.470Z,100395.25
2022-12-16T18:52:09.413Z,100393.44
2022-12-16T18:54:55.361Z,100400.34
2022-12-16T18:57:41.258Z,100400.34
2022-12-16T19:00:28.765Z,100401.81
2022-12-16T19:03:14.972Z,100400.34
2022-12-16T19:06:02.468Z,100395.25
2022-12-16T19:08:45.194Z,100401.97
2022-12-16T19:11:33.564Z,100410.66
2022-12-16T19:14:19.393Z,100412.47
2022-12-16T19:17:05.369Z,100414.09
2022-12-16T19:19:51.524Z,100407.97
2022-12-16T19:22:39.418Z,100415.59
2022-12-16T19:25:26.376Z,100429.19
2022-12-16T19:28:12.475Z,100425.44
2022-12-16T19:30:58.603Z,100423.69
2022-12-16T19:33:44.513Z,100420.09
2022-12-16T19:36:26.741Z,100423.69
2022-12-16T19:39:14.503Z,100428.75
2022-12-16T19:42:00.506Z,100432.78
2022-12-16T19:44:46.573Z,100441.16
2022-12-16T19:47:32.591Z,100433.25
2022-12-16T19:50:18.722Z,100434.16
2022-12-16T19:53:04.923Z,100444.31
2022-12-16T19:55:52.322Z,100452.84
2022-12-16T19:58:39.984Z,100450.31
2022-12-16T20:01:28.135Z,100444.91
2022-12-16T20:04:14.709Z,100454.91
2022-12-16T20:06:59.903Z,100451.47
2022-12-16T20:09:45.662Z,100451.47
2022-12-16T20:12:32.803Z,100471.81
2022-12-16T20:15:15.237Z,100475.13
2022-12-16T20:18:01.323Z,100473.59
2022-12-16T20:20:47.433Z,100473.59
2022-12-16T20:23:33.543Z,100471.22
2022-12-16T20:26:20.363Z,100479.75
2022-12-16T20:29:08.029Z,100462.13
2022-12-16T20:31:55.929Z,100471.50
2022-12-16T20:34:42.055Z,100474.19
2022-12-16T20:37:28.046Z,100476.00
2022-12-16T20:40:14.096Z,100467.63
2022-12-16T20:43:00.092Z,100464.34
2022-12-16T20:45:47.408Z,100481.34
2022-12-16T20:48:34.423Z,100486.31
2022-12-16T20:51:26.461Z,100487.66
2022-12-16T20:54:13.931Z,100497.81
2022-12-16T20:57:00.291Z,100504.69
2022-12-16T20:59:46.345Z,100504.69
2022-12-16T21:02:35.181Z,100499.03
2022-12-16T21:05:21.986Z,100506.78
2022-12-16T21:08:08.032Z,100512.75
2022-12-16T21:10:56.063Z,100512.75
2022-12-16T21:17:00.178Z,100518.75
2022-12-16T21:19:47.807Z,100520.53
2022-12-16T21:22:33.807Z,100520.38
2022-12-16T21:28:25.970Z,100540.28
2022-12-16T21:31:12.037Z,100551.97
2022-12-16T21:33:58.131Z,100552.38
2022-12-16T21:36:45.366Z,100560.00
2022-12-16T21:39:31.418Z,100566.00
2022-12-16T21:42:17.571Z,100573.78
2022-12-16T21:45:03.665Z,100568.69
2022-12-16T21:47:55.058Z,100571.97
2022-12-16T21:50:41.804Z,100581.69
2022-12-16T21:53:29.467Z,100576.47
2022-12-16T21:56:15.801Z,100587.53
2022-12-16T21:59:07.811Z,100586.66
2022-12-16T22:01:53.571Z,100598.44
2022-12-16T22:04:42.601Z,100598.28
2022-12-16T22:07:28.698Z,100601.72
2022-12-16T22:10:16.306Z,100599.19
2022-12-16T22:13:02.384Z,100603.66
2022-12-16T22:15:48.606Z,100605.34
2022-12-16T22:18:35.450Z,100613.97
2022-12-16T22:21:23.437Z,100595.63
2022-12-16T22:24:10.674Z,100596.50
2022-12-16T22:26:57.878Z,100607.59
2022-12-16T22:29:43.970Z,100607.72
2022-12-16T22:32:29.931Z,100616.22
2022-12-16T22:35:15.984Z,100619.84
2022-12-16T22:38:02.033Z,100617.28
2022-12-16T22:40:48.051Z,100612.38
2022-12-16T22:43:35.503Z,100620.13
2022-12-16T22:46:22.395Z,100626.09
2022-12-16T22:49:08.611Z,100621.00
2022-12-16T22:51:55.580Z,100630.44
2022-12-16T22:54:42.999Z,100630.44
2022-12-16T22:57:29.081Z,100633.16
2022-12-16T23:00:16.990Z,100625.38
2022-12-16T23:03:03.082Z,100633.72
2022-12-16T23:05:49.284Z,100637.91
2022-12-16T23:08:35.355Z,100636.28
2022-12-16T23:11:21.481Z,100635.25
2022-12-16T23:14:07.749Z,100646.91
2022-12-16T23:16:55.543Z,100656.00
2022-12-16T23:19:42.565Z,100653.91
2022-12-16T23:22:28.565Z,100652.09
2022-12-16T23:25:14.454Z,100662.28
2022-12-16T23:28:00.589Z,100652.09
2022-12-16T23:30:46.878Z,100651.22
2022-12-16T23:33:35.256Z,100658.09
2022-12-16T23:36:21.576Z,100654.38
2022-12-16T23:39:07.647Z,100664.38
2022-12-16T23:41:53.644Z,100665.84
2022-12-16T23:44:42.570Z,100651.50
2022-12-16T23:47:28.633Z,100663.47
2022-12-16T23:50:16.059Z,100668.72
2022-12-16T23:53:02.255Z,100662.00
2022-12-16T23:56:02.967Z,100667.06
2022-12-16T23:58:49.151Z,100670.94
